AirNav   ATP
 
 336 users online  

D37 Warren Municipal Airport
Warren, Minnesota, USA


FAA INFORMATION EFFECTIVE 09 NOVEMBER 2017

Location

FAA Identifier: D37
Lat/Long: 48-11-28.2000N / 096-42-40.7000W
48-11.470000N / 096-42.678333W
48.1911667 / -96.7113056
(estimated)
Elevation: 888.2 ft. / 270.7 m (surveyed)
Variation: 05E (2000)
From city: 2 miles E of WARREN, MN
Time zone: UTC -6 (UTC -5 during Daylight Saving Time)
Zip code: 56762

Airport Operations

Airport use: Open to the public
Activation date: 09/1948
Control tower: no
ARTCC: MINNEAPOLIS CENTER
FSS: PRINCETON FLIGHT SERVICE STATION
NOTAMs facility: PNM (NOTAM-D service available)
Attendance: UNATNDD
Wind indicator: lighted
Segmented circle: no
Lights: SS-SR
Beacon: white-green (lighted land airport)
Operates sunset to sunrise.

Airport Communications

CTAF/UNICOM: 122.8
GRAND FORKS APPROACH: 118.1
GRAND FORKS DEPARTURE: 118.1
BASIC RADAR SERVICE: 118.1
  • APCH/DEP SVC PRVDD BY RDR (GRAND FORKS AFB, GRAND FORKS, ND) ATCT ON FREQ118.1/318.1.

Nearby radio navigation aids

VOR radial/distance  VOR name  Freq  Var
TVFr281/22.3THIEF RIVER FALLS VOR/DME108.4008E
GFKr044/23.7GRAND FORKS VOR/DME114.3009E

 
NDB name  Hdg/Dist  Freq  Var  ID
CROOKSTON347/21.440003ECKN -.-. -.- -.

Airport Services

Parking: tiedowns

Runway Information

Runway 12/30

Dimensions: 3199 x 75 ft. / 975 x 23 m
Surface: asphalt, in good condition
Weight bearing capacity: 
Single wheel: 26.0
Runway edge lights: medium intensity
RUNWAY 12  RUNWAY 30
Latitude: 48-11.624120N48-11.282633N
Longitude: 096-42.938475W096-42.340022W
Elevation: 887.2 ft.885.4 ft.
Gradient: 0.1%0.1%
Traffic pattern: leftleft
Runway heading: 125 magnetic, 130 true305 magnetic, 310 true
Displaced threshold: 190 ft.no
Declared distances: TORA:3199 TODA:3199 ASDA:3199 LDA:3009TORA:3199 TODA:3199 ASDA:3199 LDA:3199
Markings: basic, in good conditionnonprecision, in good condition
Touchdown point: yes, no lightsyes, no lights
Obstructions: 20 ft. road, 505 ft. from runway, 265 ft. left of centerline, 15:1 slope to clear
15 FT BRUSH 145 FT FROM RWY END AND 113 FT R OF CNTRLN.
62 ft. trees, 1905 ft. from runway, 265 ft. right of centerline, 27:1 slope to clear
1 FT CROPS 174 FT FROM RWY END.

Runway 4/22

Dimensions: 2578 x 200 ft. / 786 x 61 m
Surface: turf, in good condition
Runway edge markings: RY 04/22 MARKED WITH YELLOW CONES.
Operational restrictions: RY 04/22 NOT PLOWED WINTER MONTHS.
RUNWAY 4  RUNWAY 22
Latitude: 48-11.348302N48-11.632635N
Longitude: 096-42.962122W096-42.491685W
Elevation: 886.2 ft.884.9 ft.
Gradient: 0.1%0.1%
Traffic pattern: leftleft
Runway heading: 043 magnetic, 048 true223 magnetic, 228 true
Touchdown point: yes, no lightsyes, no lights
Obstructions: 40 ft. trees, 625 ft. from runway, 139 ft. left of centerline, 15:1 slope to clearnone

Airport Ownership and Management from official FAA records

Ownership: Publicly-owned
Owner: CITY OF WARREN
120 E BRIDGE AVE
WARREN, MN 56762
Phone 218-745-5343
Manager: AARON PETERSON
120 E. BRIDGE AVE.
WARREN, MN 56762
Phone 218-201-0083

Airport Operational Statistics

Aircraft based on the field: 6
Single engine airplanes: 6
    
Aircraft operations: avg 52/day *
53% transient general aviation
47% local general aviation
* for 12-month period ending 31 July 2015

Additional Remarks

DEER ON & INVOF AIRPORT.
TOWER 4 'WNW', 1248 FT MSL (400 FT AGL).

Instrument Procedures

NOTE: All procedures below are presented as PDF files. If you need a reader for these files, you should download the free Adobe Reader.

NOT FOR NAVIGATION. Please procure official charts for flight.
FAA instrument procedures published for use between 9 November 2017 at 0901Z and 7 December 2017 at 0900Z.

 
IAPs - Instrument Approach Procedures
RNAV (GPS) RWY 30   download (154KB)
NOTE: Special Take-Off Minimums/Departure Procedures apply   download (223KB)

Other nearby airports with instrument procedures:

KCKN - Crookston Municipal Airport-Kirkwood Field (21 nm S)
KTVF - Thief River Falls Regional Airport (22 nm E)
KGFK - Grand Forks International Airport (24 nm SW)
KGAF - Hutson Field Airport (29 nm NW)
KRDR - Grand Forks Air Force Base (31 nm SW)
 
Loc | Ops | Rwys | IFR | FBO | Links
Com | Nav | Svcs | Stats | Notes


 
Area around D37 (Warren Municipal Airport)
 
Road maps at: MapQuest Bing Google
 
Aerial photo
WARNING: Photo may not be current or correct
Aerial photo of D37 (Warren Municipal Airport)
Photo taken 10-Jun-2015
looking northwest.

Do you have a better or more recent aerial photo of Warren Municipal Airport that you would like to share? If so, please send us your photo.

 
Sectional chart

 
Airport distance calculator
Flying to Warren Municipal Airport? Find the distance to fly.

From to D37

Sunrise and sunset
Times for 24-Nov-2017
 Local
(UTC-6)
 Zulu
(UTC)
Morning civil twilight07:1313:13
Sunrise07:4813:48
Sunset16:3922:39
Evening civil twilight17:1423:14

Current date and time
Zulu (UTC)  24-Nov-2017 07:09:08
Local (UTC-6)  24-Nov-2017 01:09:08
 
METAR
KCKN 
21nm S 
240654Z AUTO 18004KT 10SM CLR 05/02 A2929 RMK AO2
KTVF 
23nm E 
240701Z AUTO 21009KT 10SM FEW110 06/02 A2927 RMK AO2 SLP925 T00610022
KGFK 
24nm SW 
240653Z AUTO 20010KT 10SM CLR 05/02 A2924 RMK AO2 SLP911 T00500017
KGAF 
29nm NW 
240655Z AUTO 24007KT 10SM CLR 05/02 A2924 RMK AO2 PWINO
KRDR 
31nm SW 
240656Z AUTO 26014KT 10SM CLR 08/02 A2925 RMK AO2 SLP917 T00770017 $
KHCO 
35nm N 
240654Z AUTO 17006KT 10SM CLR 03/01 A2921 RMK AO2
TAF
KTVF 
23nm E 
240521Z 2406/2506 21010KT P6SM BKN150 FM241400 21013KT P6SM -SHRA OVC035 FM241600 26016G24KT P6SM -SHRA BKN025 FM241700 31017G25KT P6SM -SHRA BKN025 FM241800 30018G27KT P6SM BKN035 FM250300 30011G19KT P6SM BKN110
KGFK 
24nm SW 
240521Z 2406/2506 22010KT P6SM FEW090 BKN200 FM241200 19008KT P6SM -SHRA OVC070 FM241400 25014KT P6SM -SHRA BKN030 FM241500 27021G32KT P6SM -SHRA BKN030 FM241600 32021G32KT P6SM -SHRA BKN070 FM241700 29018G27KT P6SM FEW140 FM242300 30012KT P6SM FEW200
NOTAMs
Click for the latest NOTAMs
NOTAMs are issued by the DoD/FAA and will open in a separate window not controlled by AirNav.

 

 
 

Would you like to see your business listed on this page?

 If your business provides an interesting product or service to pilots, flight crews, aircraft, or users of the Warren Municipal Airport, you should consider listing it here.  To start the listing process, click on the button below
 
Add a business
 

Other Pages about Warren Municipal Airport

PDF page(s) from the Minnesota Airport Directory
 
Update a link
 
Copyright © AirNav, LLC. All rights reserved. Privacy Policy  Contact